Marysville, Canada
Current Conditions -  °F | °C
As of 3:41 AM on Friday 24 Oct 2014 (Local Time) from CYFC Reporting Station
Moderate Rain Moderate Rain  
Wind Chill: 42°   Ceiling: 1200
Heat Index: 48°   Visibility: 3mi
Dew Point: 46°   Wind: 16mph
Humidity: 93%   Direction: 30°NNE
Pressure: 29.74"   Gusts: 31mph
Location:  45.98°N, 66.58°W
Report Text: CYFC 240641Z AUTO 03014G27KT 3SM RA BR OVC012 09/08 A2974 RMK SLP072
Loading
Personal Weather Stations






























Interactive Weather Map
Tropical Storm Tracking
New forecast layout! Learn more

10-Day Weather Forecast

Advertisements
Track Severe Weather on mobile